Time;durP1;ratioP1;P1;durP2;ratioP2;P2;SDS_P1;SDS_P2;PMS_P1;PMS_P2;Temp;Humidity;BMP_temperature;BMP_pressure;BME280_temperature;BME280_humidity;BME280_pressure;Samples;Min_cycle;Max_cycle;Signal;HPM_P1;HPM_P2
2022/03/09 00:00:08;;;;;;;12.40;7.53;;;;;;;3.26;42.52;100534.56;1087255;54;20023;-81
2022/03/09 00:01:12;;;;;;;10.63;7.00;;;;;;;3.26;42.19;100529.28;1087405;54;20041;-80
2022/03/09 00:02:14;;;;;;;11.10;7.47;;;;;;;3.29;42.11;100536.19;1087398;54;20142;-80
2022/03/09 00:03:18;;;;;;;20.38;6.85;;;;;;;3.28;42.20;100534.47;1087158;54;20045;-81
2022/03/09 00:04:20;;;;;;;11.80;6.78;;;;;;;3.28;42.11;100530.06;1087095;54;20045;-80
2022/03/09 00:05:26;;;;;;;12.82;7.07;;;;;;;3.27;42.20;100533.63;1087242;54;20039;-80
2022/03/09 00:06:28;;;;;;;12.52;6.55;;;;;;;3.26;42.24;100537.22;1087371;54;20061;-80
2022/03/09 00:07:33;;;;;;;12.45;6.75;;;;;;;3.19;43.03;100533.22;1087091;54;20045;-80
2022/03/09 00:08:34;;;;;;;12.68;7.25;;;;;;;3.22;42.84;100546.25;1088845;46;20035;-80
2022/03/09 00:09:38;;;;;;;11.00;6.57;;;;;;;3.22;42.73;100538.31;1086914;54;20098;-79
2022/03/09 00:10:40;;;;;;;11.38;7.13;;;;;;;3.18;42.89;100538.56;1086881;54;20065;-80
2022/03/09 00:11:44;;;;;;;12.02;7.65;;;;;;;3.14;42.97;100543.16;1086529;54;20046;-79
2022/03/09 00:12:46;;;;;;;13.70;8.07;;;;;;;3.09;42.97;100537.31;1086813;54;20042;-79
2022/03/09 00:13:50;;;;;;;11.88;7.40;;;;;;;3.03;43.20;100540.25;1087030;54;20137;-80
2022/03/09 00:14:51;;;;;;;15.77;8.40;;;;;;;2.95;43.59;100538.06;1086990;54;20065;-80
2022/03/09 00:15:56;;;;;;;14.15;8.10;;;;;;;2.87;43.88;100541.13;1086707;54;20045;-80
2022/03/09 00:16:57;;;;;;;12.45;8.10;;;;;;;2.72;43.93;100539.31;1086787;54;20046;-81
2022/03/09 00:18:02;;;;;;;14.10;8.60;;;;;;;2.62;44.21;100545.09;1086676;54;20038;-80
2022/03/09 00:19:04;;;;;;;13.07;8.13;;;;;;;2.62;43.96;100547.72;1087730;39;20501;-80
2022/03/09 00:20:10;;;;;;;13.57;8.38;;;;;;;2.63;44.04;100538.88;1088722;39;20735;-80
2022/03/09 00:21:14;;;;;;;13.25;8.32;;;;;;;2.64;43.90;100545.00;1087002;54;20034;-79
2022/03/09 00:22:18;;;;;;;12.05;7.53;;;;;;;2.71;43.70;100545.53;1088076;54;20026;-79
2022/03/09 00:23:20;;;;;;;10.65;7.25;;;;;;;2.76;43.20;100548.75;1087595;46;20039;-80
2022/03/09 00:24:24;;;;;;;12.88;7.38;;;;;;;2.73;43.70;100544.50;1086928;54;20026;-80
2022/03/09 00:25:26;;;;;;;14.45;7.93;;;;;;;2.69;43.88;100547.38;1087042;54;20046;-80
2022/03/09 00:26:30;;;;;;;13.82;7.90;;;;;;;2.75;44.03;100544.41;1086860;54;20046;-81
2022/03/09 00:27:32;;;;;;;12.35;7.47;;;;;;;2.79;44.24;100543.31;1086881;54;20043;-80
2022/03/09 00:28:36;;;;;;;11.50;7.50;;;;;;;2.79;44.19;100543.31;1086303;54;20038;-79
2022/03/09 00:29:38;;;;;;;11.93;7.45;;;;;;;2.76;44.44;100543.47;1086429;54;20639;-79
2022/03/09 00:30:42;;;;;;;11.98;7.75;;;;;;;2.65;45.28;100541.41;1086529;54;20038;-78
2022/03/09 00:31:44;;;;;;;11.95;7.90;;;;;;;2.56;45.66;100548.03;1086552;54;20042;-79
2022/03/09 00:32:48;;;;;;;12.25;7.90;;;;;;;2.57;45.57;100552.38;1086562;54;20042;-79
2022/03/09 00:33:50;;;;;;;15.23;8.13;;;;;;;2.61;45.48;100551.28;1086487;54;20033;-79
2022/03/09 00:34:54;;;;;;;11.32;7.53;;;;;;;2.65;45.21;100547.53;1088958;39;20437;-80
2022/03/09 00:35:55;;;;;;;11.55;7.05;;;;;;;2.67;44.85;100554.53;1086751;54;20038;-80
2022/03/09 00:37:02;;;;;;;13.55;7.22;;;;;;;2.63;45.12;100549.44;1086977;54;20038;-79
2022/03/09 00:38:04;;;;;;;11.55;7.38;;;;;;;2.67;45.24;100558.03;1086939;54;20042;-79
2022/03/09 00:39:08;;;;;;;11.90;7.43;;;;;;;2.60;45.19;100552.22;1086817;54;20571;-79
2022/03/09 00:40:10;;;;;;;16.45;8.05;;;;;;;2.58;45.71;100555.88;1088031;46;20046;-79
2022/03/09 00:41:14;;;;;;;16.75;9.02;;;;;;;2.59;45.87;100555.78;1086949;54;20034;-79
2022/03/09 00:42:15;;;;;;;15.63;8.82;;;;;;;2.61;45.83;100561.84;1086961;54;20038;-79
2022/03/09 00:43:20;;;;;;;15.45;8.38;;;;;;;2.62;45.86;100553.00;1086849;54;20042;-79
2022/03/09 00:44:22;;;;;;;15.60;8.40;;;;;;;2.63;45.48;100549.44;1086206;46;20046;-80
2022/03/09 00:45:26;;;;;;;17.40;9.35;;;;;;;2.59;45.84;100553.16;1086157;54;20060;-80
2022/03/09 00:46:28;;;;;;;16.75;9.00;;;;;;;2.52;46.22;100553.53;1086503;54;20034;-79
2022/03/09 00:47:32;;;;;;;15.48;8.82;;;;;;;2.47;46.35;100562.56;1086746;54;20034;-79
2022/03/09 00:48:34;;;;;;;13.43;8.45;;;;;;;2.37;46.69;100547.28;1086606;54;20042;-79
2022/03/09 00:49:38;;;;;;;16.45;8.88;;;;;;;2.38;46.72;100551.63;1086628;54;20042;-79
2022/03/09 00:50:39;;;;;;;15.18;9.02;;;;;;;2.39;46.39;100553.34;1086647;54;20038;-79
2022/03/09 00:51:44;;;;;;;13.02;8.10;;;;;;;2.36;46.66;100556.16;1086620;54;20038;-79
2022/03/09 00:52:48;;;;;;;15.00;9.20;;;;;;;2.33;46.75;100563.28;1087786;54;20015;-79
2022/03/09 00:53:52;;;;;;;14.07;8.38;;;;;;;2.35;46.47;100560.56;1087659;54;20035;-79
2022/03/09 00:54:54;;;;;;;16.58;8.50;;;;;;;2.30;46.76;100560.81;1087469;39;20444;-79
2022/03/09 00:55:58;;;;;;;14.88;7.90;;;;;;;2.40;46.27;100558.56;1086641;54;20045;-79
2022/03/09 00:57:00;;;;;;;14.50;8.60;;;;;;;2.39;46.29;100569.16;1086166;54;20066;-80
2022/03/09 00:58:04;;;;;;;16.23;8.57;;;;;;;2.41;46.24;100567.31;1087108;46;20035;-79
2022/03/09 00:59:06;;;;;;;13.73;8.10;;;;;;;2.36;46.25;100566.72;1086612;47;20030;-79
2022/03/09 01:00:11;;;;;;;14.45;8.63;;;;;;;2.29;46.57;100571.44;1086714;54;20082;-79
2022/03/09 01:01:13;;;;;;;15.38;9.05;;;;;;;2.32;46.61;100572.13;1085658;54;20065;-78
2022/03/09 01:02:17;;;;;;;14.57;8.50;;;;;;;2.37;46.53;100569.25;1085484;54;20039;-78
2022/03/09 01:03:19;;;;;;;12.82;8.02;;;;;;;2.42;46.58;100571.66;1086273;54;20043;-79
2022/03/09 01:04:23;;;;;;;14.25;8.45;;;;;;;2.36;46.79;100572.00;1085729;54;20038;-78
2022/03/09 01:05:24;;;;;;;16.00;8.75;;;;;;;2.32;47.01;100566.88;1086005;46;20074;-79
2022/03/09 01:06:28;;;;;;;12.85;8.60;;;;;;;2.36;46.74;100569.34;1086213;54;20085;-78
2022/03/09 01:07:30;;;;;;;12.48;8.02;;;;;;;2.36;46.94;100561.44;1086036;54;20042;-79
2022/03/09 01:08:37;;;;;;;13.35;8.40;;;;;;;2.32;47.33;100561.59;1086045;54;20074;-79
2022/03/09 01:09:38;;;;;;;15.75;8.90;;;;;;;2.26;47.42;100558.41;1086000;54;20073;-79
2022/03/09 01:10:43;;;;;;;16.73;10.27;;;;;;;1.88;48.86;100567.34;1086535;39;20440;-79
2022/03/09 01:11:44;;;;;;;16.35;10.77;;;;;;;1.65;49.98;100568.47;1086017;47;20766;-79
2022/03/09 01:12:48;;;;;;;16.95;11.00;;;;;;;1.59;50.48;100558.19;1085685;54;20035;-79
2022/03/09 01:13:50;;;;;;;17.48;10.27;;;;;;;1.47;50.74;100572.84;1086214;54;20031;-79
2022/03/09 01:14:54;;;;;;;23.20;12.07;;;;;;;1.30;51.52;100560.44;1087831;46;20058;-78
2022/03/09 01:15:56;;;;;;;17.92;11.00;;;;;;;1.27;51.63;100561.47;1086125;54;20048;-79
2022/03/09 01:17:00;;;;;;;19.60;11.07;;;;;;;1.20;51.81;100560.06;1086460;39;20473;-79
2022/03/09 01:18:01;;;;;;;18.20;11.55;;;;;;;1.27;51.36;100566.72;1087040;39;20780;-78
2022/03/09 01:19:06;;;;;;;15.27;10.30;;;;;;;1.44;50.68;100551.88;1085817;54;20058;-79
2022/03/09 01:20:08;;;;;;;15.15;9.15;;;;;;;1.59;50.13;100552.94;1086149;54;20068;-79
2022/03/09 01:21:13;;;;;;;14.93;8.65;;;;;;;1.64;49.86;100554.41;1086227;54;20058;-77
2022/03/09 01:22:14;;;;;;;16.45;9.43;;;;;;;1.74;49.54;100548.69;1086063;54;20038;-79
2022/03/09 01:23:18;;;;;;;14.10;8.93;;;;;;;1.77;49.51;100553.81;1086563;47;20041;-78
2022/03/09 01:24:23;;;;;;;15.73;8.52;;;;;;;1.80;49.25;100554.53;1086926;54;20042;-79
2022/03/09 01:25:27;;;;;;;17.17;9.45;;;;;;;1.89;48.83;100547.06;1089419;47;20038;-78
2022/03/09 01:26:31;;;;;;;13.02;8.15;;;;;;;1.91;48.90;100548.69;1087953;54;20034;-79
2022/03/09 01:27:33;;;;;;;13.20;8.15;;;;;;;1.87;48.80;100550.66;1088686;46;20030;-79
2022/03/09 01:28:37;;;;;;;15.93;9.50;;;;;;;1.65;49.75;100548.22;1087984;54;20034;-79
2022/03/09 01:29:41;;;;;;;15.80;9.80;;;;;;;1.51;50.20;100542.78;1087139;54;20039;-80
2022/03/09 01:30:43;;;;;;;16.02;9.60;;;;;;;1.51;50.23;100543.63;1086248;54;20031;-79
2022/03/09 01:31:47;;;;;;;14.50;9.57;;;;;;;1.59;49.98;100548.53;1086685;54;20050;-79
2022/03/09 01:32:49;;;;;;;15.57;9.68;;;;;;;1.53;49.87;100547.03;1087341;46;20038;-79
2022/03/09 01:33:53;;;;;;;14.48;9.45;;;;;;;1.58;49.89;100554.72;1087932;54;20098;-79
2022/03/09 01:34:55;;;;;;;17.55;10.18;;;;;;;1.36;50.40;100553.13;1087575;54;20045;-80
2022/03/09 01:35:59;;;;;;;18.48;10.48;;;;;;;1.21;50.82;100556.50;1088190;54;20026;-79
2022/03/09 01:37:02;;;;;;;16.67;10.70;;;;;;;1.06;51.46;100558.91;1088160;54;20038;-78
2022/03/09 01:38:06;;;;;;;15.70;10.07;;;;;;;1.09;51.34;100558.75;1089778;46;20035;-78
2022/03/09 01:39:12;;;;;;;16.70;10.35;;;;;;;1.15;50.99;100551.50;1088056;54;20049;-78
2022/03/09 01:40:16;;;;;;;15.73;9.57;;;;;;;1.35;50.74;100554.03;1088135;54;20027;-80
2022/03/09 01:41:20;;;;;;;15.10;8.98;;;;;;;1.40;50.16;100549.41;1090641;46;20078;-80
2022/03/09 01:42:22;;;;;;;14.98;8.68;;;;;;;1.49;50.04;100555.19;1086773;54;20038;-81
2022/03/09 01:43:26;;;;;;;15.50;8.88;;;;;;;1.47;49.88;100551.75;1086859;54;20039;-79
2022/03/09 01:44:28;;;;;;;14.63;8.50;;;;;;;1.56;49.52;100551.31;1086817;54;20046;-79
2022/03/09 01:45:32;;;;;;;14.65;8.30;;;;;;;1.59;49.59;100545.91;1086495;54;20026;-78
2022/03/09 01:46:34;;;;;;;14.02;7.43;;;;;;;1.62;49.55;100545.72;1086459;54;20057;-78
2022/03/09 01:47:38;;;;;;;12.88;7.75;;;;;;;1.57;49.29;100550.38;1086439;54;20030;-78
2022/03/09 01:48:39;;;;;;;15.20;8.90;;;;;;;1.38;49.99;100559.19;1085780;54;20045;-78
2022/03/09 01:49:44;;;;;;;15.82;9.18;;;;;;;1.24;50.49;100565.09;1086962;39;20452;-78
2022/03/09 01:50:48;;;;;;;15.80;9.35;;;;;;;1.18;50.67;100556.63;1086233;54;20026;-79
2022/03/09 01:51:52;;;;;;;14.50;9.25;;;;;;;1.09;51.10;100563.16;1086395;39;20524;-78
2022/03/09 01:52:57;;;;;;;15.55;9.80;;;;;;;1.01;51.39;100560.03;1086108;54;20046;-78
2022/03/09 01:53:59;;;;;;;19.35;10.57;;;;;;;0.91;51.81;100562.25;1086330;54;20042;-78
2022/03/09 01:55:04;;;;;;;17.92;10.77;;;;;;;0.85;52.12;100557.28;1086588;54;20038;-79
2022/03/09 01:56:08;;;;;;;18.35;11.15;;;;;;;0.74;52.46;100558.63;1086631;54;20050;-78
2022/03/09 01:57:13;;;;;;;18.63;11.43;;;;;;;0.72;52.46;100555.19;1087526;39;20525;-78
2022/03/09 01:58:15;;;;;;;16.38;10.32;;;;;;;0.77;52.20;100550.56;1086478;54;20043;-78
2022/03/09 01:59:20;;;;;;;17.05;10.60;;;;;;;0.84;51.78;100553.78;1086373;54;20039;-78
2022/03/09 02:00:22;;;;;;;18.00;10.13;;;;;;;0.82;51.55;100554.78;1087755;54;20038;-79
2022/03/09 02:01:27;;;;;;;15.10;9.00;;;;;;;0.82;51.68;100558.25;1088697;46;20042;-79
2022/03/09 02:02:28;;;;;;;14.60;9.77;;;;;;;0.84;51.53;100545.03;1087559;54;20049;-79
2022/03/09 02:03:32;;;;;;;14.75;9.05;;;;;;;0.82;51.59;100550.34;1087479;54;20030;-79
2022/03/09 02:04:34;;;;;;;16.75;10.63;;;;;;;0.78;51.52;100551.44;1087039;54;20030;-79
2022/03/09 02:05:39;;;;;;;15.93;9.75;;;;;;;0.79;51.71;100553.13;1087245;54;20026;-79
2022/03/09 02:06:41;;;;;;;17.00;9.73;;;;;;;0.77;51.52;100545.28;1087304;54;20062;-79
2022/03/09 02:10:19;;;;;;;13.80;8.88;;;;;;;0.82;51.27;100537.19;1092373;31;20587;-79
2022/03/09 02:11:24;;;;;;;14.15;9.05;;;;;;;0.85;51.29;100533.59;1087315;54;20030;-78
2022/03/09 02:12:29;;;;;;;14.80;7.93;;;;;;;0.90;51.04;100536.84;1087015;54;20037;-78
2022/03/09 02:13:36;;;;;;;16.52;9.60;;;;;;;0.97;51.04;100540.06;1087341;54;20037;-79
2022/03/09 02:14:42;;;;;;;16.27;9.07;;;;;;;1.01;50.82;100534.56;1087268;54;20042;-79
2022/03/09 02:15:44;;;;;;;15.40;8.50;;;;;;;0.95;51.12;100534.84;1087718;54;20045;-79
2022/03/09 02:16:52;;;;;;;14.10;9.70;;;;;;;0.99;51.15;100539.06;1087644;54;20031;-78
2022/03/09 02:17:54;;;;;;;16.27;10.40;;;;;;;0.82;51.32;100533.72;1087277;54;20054;-78
2022/03/09 02:18:58;;;;;;;15.15;10.52;;;;;;;0.66;51.67;100537.06;1087332;54;20038;-78
2022/03/09 02:20:00;;;;;;;20.17;10.57;;;;;;;0.54;52.43;100537.59;1087089;54;20042;-79
2022/03/09 02:21:05;;;;;;;19.67;10.23;;;;;;;0.50;52.56;100541.28;1086614;54;20041;-78
2022/03/09 02:22:13;;;;;;;19.38;10.63;;;;;;;0.50;52.75;100533.38;1087049;54;20049;-78
2022/03/09 02:23:20;;;;;;;16.10;9.82;;;;;;;0.53;52.66;100531.47;1087394;54;20049;-79
2022/03/09 02:24:22;;;;;;;17.65;10.60;;;;;;;0.52;52.71;100535.00;1087194;54;20046;-79
2022/03/09 02:25:26;;;;;;;14.80;8.75;;;;;;;0.66;52.21;100534.44;1087058;54;20026;-78
2022/03/09 02:26:28;;;;;;;15.77;9.40;;;;;;;0.83;51.81;100527.53;1088529;39;20484;-79
2022/03/09 02:27:32;;;;;;;14.15;9.35;;;;;;;0.91;51.41;100526.22;1087416;46;20556;-79
2022/03/09 02:28:38;;;;;;;14.40;8.65;;;;;;;1.00;51.13;100529.34;1086957;54;20042;-79
2022/03/09 02:29:42;;;;;;;12.63;7.78;;;;;;;1.05;50.99;100536.13;1086909;54;20050;-80
2022/03/09 02:30:45;;;;;;;15.30;7.88;;;;;;;1.10;50.85;100535.91;1086629;54;20042;-78
2022/03/09 02:31:49;;;;;;;16.48;9.35;;;;;;;0.84;51.51;100537.13;1085859;54;20039;-78
2022/03/09 02:32:54;;;;;;;17.90;11.20;;;;;;;0.64;52.37;100536.25;1085962;39;20290;-79
2022/03/09 02:33:56;;;;;;;14.35;8.93;;;;;;;0.64;52.53;100533.63;1085547;54;20153;-78
2022/03/09 02:35:00;;;;;;;15.52;9.68;;;;;;;0.68;52.36;100536.97;1087102;54;20038;-80
2022/03/09 02:36:03;;;;;;;15.80;9.70;;;;;;;0.77;52.11;100532.13;1087784;54;20097;-79
2022/03/09 02:37:08;;;;;;;16.45;9.25;;;;;;;0.92;51.57;100535.00;1087956;54;20754;-79
2022/03/09 02:38:12;;;;;;;12.73;8.20;;;;;;;1.00;51.44;100532.88;1087952;54;20044;-79
2022/03/09 02:39:17;;;;;;;12.90;8.00;;;;;;;1.07;51.35;100533.44;1087443;54;20043;-78
2022/03/09 02:40:21;;;;;;;12.02;7.85;;;;;;;1.11;50.79;100537.63;1086658;54;20027;-79
2022/03/09 02:41:23;;;;;;;13.02;8.15;;;;;;;1.15;50.94;100536.56;1087132;54;20065;-79
2022/03/09 02:42:27;;;;;;;13.65;8.07;;;;;;;1.19;50.64;100534.63;1086669;54;20360;-79
2022/03/09 02:43:29;;;;;;;13.95;8.32;;;;;;;1.14;50.71;100536.59;1087341;54;20094;-79
2022/03/09 02:44:33;;;;;;;13.35;8.10;;;;;;;1.07;51.18;100534.28;1088222;46;20026;-79
2022/03/09 02:45:36;;;;;;;14.15;8.70;;;;;;;0.88;51.70;100534.28;1088087;54;20058;-79
2022/03/09 02:46:40;;;;;;;13.77;9.15;;;;;;;0.90;51.56;100534.22;1087891;54;20035;-80
2022/03/09 02:47:44;;;;;;;14.70;8.95;;;;;;;0.93;51.29;100536.72;1087954;54;20035;-79
2022/03/09 02:48:49;;;;;;;14.20;8.75;;;;;;;1.02;51.27;100531.03;1087788;54;20039;-79
2022/03/09 02:49:54;;;;;;;12.57;8.32;;;;;;;1.05;51.14;100530.84;1087773;54;20541;-79
2022/03/09 02:50:56;;;;;;;12.48;7.80;;;;;;;1.08;50.90;100536.00;1087875;54;20049;-79
2022/03/09 02:52:01;;;;;;;14.90;8.50;;;;;;;1.07;51.01;100533.44;1087750;54;20034;-79
2022/03/09 02:53:03;;;;;;;12.93;8.40;;;;;;;1.11;50.86;100534.16;1087741;54;20067;-79
2022/03/09 02:54:08;;;;;;;13.68;8.13;;;;;;;1.00;51.07;100532.00;1087656;54;20031;-79
2022/03/09 02:55:13;;;;;;;12.93;8.18;;;;;;;1.00;51.24;100527.59;1086941;54;20069;-79
2022/03/09 02:56:18;;;;;;;14.20;8.70;;;;;;;0.98;51.26;100531.22;1087711;39;20470;-79
2022/03/09 02:57:20;;;;;;;17.50;9.90;;;;;;;0.92;51.63;100519.22;1089770;39;20531;-78
2022/03/09 02:58:25;;;;;;;14.02;8.90;;;;;;;0.80;52.17;100522.41;1086150;54;20038;-79
2022/03/09 02:59:27;;;;;;;17.83;9.15;;;;;;;0.81;52.15;100526.75;1085931;54;20119;-78
2022/03/09 03:00:31;;;;;;;13.25;8.68;;;;;;;0.82;52.06;100521.38;1086266;54;20046;-78
2022/03/09 03:01:34;;;;;;;13.05;8.30;;;;;;;0.83;52.14;100523.09;1086489;54;20033;-79
2022/03/09 03:02:39;;;;;;;14.98;9.00;;;;;;;0.82;52.36;100529.28;1086370;54;20034;-79
2022/03/09 03:03:41;;;;;;;15.35;8.15;;;;;;;0.78;52.45;100533.00;1086565;54;20599;-79
2022/03/09 03:04:45;;;;;;;15.90;9.85;;;;;;;0.70;53.00;100524.59;1086330;54;20107;-79
2022/03/09 03:05:47;;;;;;;13.50;8.55;;;;;;;0.74;52.66;100521.75;1088431;46;20053;-79
2022/03/09 03:06:51;;;;;;;14.05;9.23;;;;;;;0.72;52.67;100531.50;1086278;54;20066;-78
2022/03/09 03:07:53;;;;;;;13.95;8.02;;;;;;;0.73;52.65;100529.72;1086066;54;20046;-79
2022/03/09 03:08:58;;;;;;;13.98;8.27;;;;;;;0.72;52.76;100531.50;1087403;46;20049;-79
2022/03/09 03:10:00;;;;;;;12.57;7.75;;;;;;;0.76;52.73;100533.06;1087139;54;20038;-79
2022/03/09 03:11:08;;;;;;;15.73;8.63;;;;;;;0.74;52.94;100532.28;1089473;39;20436;-79
2022/03/09 03:12:10;;;;;;;15.48;8.55;;;;;;;0.72;52.93;100534.13;1087584;54;20018;-79
2022/03/09 03:13:14;;;;;;;13.18;7.93;;;;;;;0.76;53.03;100534.84;1087392;54;20027;-79
2022/03/09 03:14:16;;;;;;;13.80;8.13;;;;;;;0.76;52.88;100534.84;1087036;54;20062;-79
2022/03/09 03:15:21;;;;;;;14.80;8.85;;;;;;;0.73;53.16;100542.88;1086883;54;20049;-79
2022/03/09 03:16:22;;;;;;;13.63;7.75;;;;;;;0.74;53.18;100534.94;1087074;39;20265;-79
2022/03/09 03:17:27;;;;;;;13.55;8.57;;;;;;;0.75;53.16;100539.28;1087189;54;20034;-79
2022/03/09 03:18:29;;;;;;;11.93;7.53;;;;;;;0.77;52.91;100539.19;1087138;54;20035;-79
2022/03/09 03:19:34;;;;;;;11.68;7.63;;;;;;;0.82;52.78;100536.34;1087764;39;20484;-79
2022/03/09 03:20:36;;;;;;;15.15;7.32;;;;;;;0.83;52.77;100540.69;1087049;54;20555;-79
2022/03/09 03:21:40;;;;;;;19.63;7.60;;;;;;;0.85;52.63;100536.22;1087312;54;20053;-79
2022/03/09 03:22:42;;;;;;;11.98;6.75;;;;;;;0.90;52.83;100547.38;1087187;54;20015;-78
2022/03/09 03:23:47;;;;;;;11.63;7.72;;;;;;;0.85;53.07;100539.69;1090111;39;20516;-78
2022/03/09 03:24:49;;;;;;;13.02;7.85;;;;;;;0.83;53.05;100544.16;1087294;54;20041;-79
2022/03/09 03:25:54;;;;;;;12.80;8.18;;;;;;;0.82;53.24;100538.97;1087124;54;20042;-79
2022/03/09 03:26:58;;;;;;;12.15;7.70;;;;;;;0.83;53.14;100540.69;1087205;54;20042;-79
2022/03/09 03:28:02;;;;;;;14.75;7.70;;;;;;;0.85;53.03;100547.59;1087261;54;20037;-79
2022/03/09 03:29:07;;;;;;;12.15;7.72;;;;;;;0.84;53.06;100542.41;1087419;54;20035;-79
2022/03/09 03:30:10;;;;;;;13.38;7.30;;;;;;;0.79;53.09;100547.88;1086493;54;20050;-79
2022/03/09 03:31:14;;;;;;;21.17;8.60;;;;;;;0.78;53.20;100536.47;1086395;54;20589;-79
2022/03/09 03:32:16;;;;;;;13.32;7.30;;;;;;;0.81;53.18;100547.78;1086137;54;21914;-79
2022/03/09 04:44:57;;;;;;;16.02;10.45;;;;;;;-0.80;58.66;100579.00;1087713;54;20417;-77
2022/03/09 04:45:59;;;;;;;16.35;10.30;;;;;;;-1.03;58.98;100587.75;1087820;54;20038;-77
2022/03/09 04:47:04;;;;;;;18.10;10.88;;;;;;;-1.03;58.84;100585.13;1087939;54;20106;-77
2022/03/09 04:48:05;;;;;;;14.40;9.70;;;;;;;-0.97;58.67;100584.91;1087926;54;20034;-76
2022/03/09 04:49:10;;;;;;;15.98;10.52;;;;;;;-1.04;58.60;100593.94;1087925;54;20651;-78
2022/03/09 04:50:14;;;;;;;15.85;10.00;;;;;;;-0.97;58.61;100584.91;1087853;54;20086;-76
2022/03/09 04:51:16;;;;;;;17.73;9.98;;;;;;;-0.80;57.77;100585.13;1087939;54;20038;-77
2022/03/09 04:52:20;;;;;;;15.02;9.23;;;;;;;-0.73;57.45;100583.13;1087859;54;20110;-77
2022/03/09 04:53:22;;;;;;;14.55;8.98;;;;;;;-0.66;57.26;100584.59;1087617;54;20061;-78
2022/03/09 04:54:26;;;;;;;12.48;7.95;;;;;;;-0.60;57.00;100583.50;1089829;39;20712;-77
2022/03/09 04:55:30;;;;;;;13.18;8.35;;;;;;;-0.56;56.85;100594.72;1087899;54;20042;-77
2022/03/09 04:56:31;;;;;;;12.23;7.60;;;;;;;-0.53;56.51;100590.22;1087998;54;20034;-77
2022/03/09 04:57:38;;;;;;;14.93;8.73;;;;;;;-0.52;56.53;100586.66;1088109;54;20037;-77
2022/03/09 04:58:40;;;;;;;12.98;7.47;;;;;;;-0.54;56.66;100596.38;1088293;54;20701;-76
2022/03/09 04:59:45;;;;;;;17.13;9.55;;;;;;;-0.54;56.43;100592.91;1087901;54;20057;-77
2022/03/09 05:00:51;;;;;;;14.25;8.40;;;;;;;-0.55;56.33;100592.03;1087871;54;20026;-78
2022/03/09 05:01:53;;;;;;;13.52;8.32;;;;;;;-0.52;56.27;100589.28;1088313;54;20019;-77
2022/03/09 05:02:57;;;;;;;14.55;8.80;;;;;;;-0.54;56.29;100591.13;1088014;54;20082;-77
2022/03/09 05:03:59;;;;;;;20.17;8.60;;;;;;;-0.51;55.92;100592.75;1087930;54;20034;-77
2022/03/09 05:05:03;;;;;;;14.30;8.88;;;;;;;-0.49;56.03;100593.56;1087902;54;20676;-79
2022/03/09 05:06:05;;;;;;;13.02;8.32;;;;;;;-0.47;55.94;100589.13;1089896;39;20661;-78
2022/03/09 05:07:09;;;;;;;14.70;8.45;;;;;;;-0.41;55.84;100590.66;1087914;54;20090;-77
2022/03/09 05:08:11;;;;;;;12.82;8.30;;;;;;;-0.46;55.99;100590.81;1087946;54;20034;-77
2022/03/09 05:09:15;;;;;;;13.40;8.25;;;;;;;-0.48;56.11;100588.28;1087897;54;20042;-78
2022/03/09 05:10:20;;;;;;;14.18;9.15;;;;;;;-0.48;56.20;100592.66;1087849;54;20038;-77
2022/03/09 05:11:22;;;;;;;11.82;7.65;;;;;;;-0.45;55.95;100586.41;1087890;54;20038;-77
2022/03/09 05:12:26;;;;;;;18.50;9.57;;;;;;;-0.53;56.52;100595.47;1087933;54;20086;-77
2022/03/09 05:13:28;;;;;;;16.60;8.70;;;;;;;-0.52;56.19;100585.81;1087886;54;20054;-77
2022/03/09 05:14:32;;;;;;;16.02;8.52;;;;;;;-0.50;56.15;100587.47;1087808;54;20030;-77
2022/03/09 05:15:33;;;;;;;19.40;8.77;;;;;;;-0.52;56.14;100589.28;1087918;54;20035;-77
2022/03/09 05:16:40;;;;;;;17.92;8.90;;;;;;;-0.56;56.54;100586.84;1087872;54;20111;-78
2022/03/09 05:17:42;;;;;;;18.25;9.63;;;;;;;-0.57;56.49;100593.88;1087889;54;20039;-78
2022/03/09 05:18:46;;;;;;;15.02;8.90;;;;;;;-0.66;56.40;100589.84;1087899;54;20046;-77
2022/03/09 05:19:48;;;;;;;16.00;9.05;;;;;;;-0.60;56.39;100591.38;1087809;54;20043;-77
2022/03/09 05:20:52;;;;;;;17.40;9.70;;;;;;;-0.65;56.61;100590.69;1089291;39;20637;-77
2022/03/09 05:21:54;;;;;;;15.95;9.48;;;;;;;-0.68;56.79;100590.81;1087904;54;20027;-77
2022/03/09 05:22:58;;;;;;;18.42;9.50;;;;;;;-0.66;56.66;100592.47;1087893;54;20082;-77
2022/03/09 05:23:59;;;;;;;17.58;10.48;;;;;;;-0.66;56.83;100591.63;1087836;54;20035;-78
2022/03/09 05:25:03;;;;;;;14.75;9.38;;;;;;;-0.65;56.72;100593.31;1087804;54;20054;-77
2022/03/09 05:26:05;;;;;;;15.52;10.60;;;;;;;-0.63;56.61;100588.84;1087869;54;20061;-77
2022/03/09 05:27:09;;;;;;;16.52;9.52;;;;;;;-0.57;56.28;100590.38;1087871;54;20764;-78
2022/03/09 05:28:11;;;;;;;14.93;8.27;;;;;;;-0.54;56.33;100588.50;1087947;54;20042;-77
2022/03/09 05:29:16;;;;;;;15.82;8.40;;;;;;;-0.49;56.09;100594.44;1087869;54;20046;-77
2022/03/09 05:30:17;;;;;;;14.50;8.00;;;;;;;-0.45;56.11;100592.53;1087805;54;20061;-78
2022/03/09 05:31:21;;;;;;;13.98;8.02;;;;;;;-0.42;55.71;100595.03;1087906;54;20030;-77
2022/03/09 05:32:25;;;;;;;14.50;8.38;;;;;;;-0.48;56.05;100593.53;1087924;54;20030;-77
2022/03/09 05:33:29;;;;;;;13.73;8.98;;;;;;;-0.47;56.03;100592.56;1092915;39;21114;-78
2022/03/09 05:34:31;;;;;;;12.60;8.27;;;;;;;-0.44;56.07;100594.25;1087818;54;20038;-76
2022/03/09 05:35:37;;;;;;;12.63;7.70;;;;;;;-0.43;55.70;100581.97;1087768;54;20030;-78
2022/03/09 05:36:39;;;;;;;14.40;8.73;;;;;;;-0.40;55.62;100587.94;1087850;54;20030;-78
2022/03/09 05:37:44;;;;;;;13.80;8.02;;;;;;;-0.35;55.63;100587.75;1087875;54;20039;-76
2022/03/09 05:38:46;;;;;;;10.88;6.50;;;;;;;-0.32;55.59;100588.50;1087866;54;20018;-77
2022/03/09 05:39:51;;;;;;;12.48;7.93;;;;;;;-0.27;55.24;100590.09;1087799;54;20110;-77
2022/03/09 05:40:52;;;;;;;10.18;6.35;;;;;;;-0.24;55.16;100595.22;1087822;54;20023;-77
2022/03/09 05:41:56;;;;;;;11.52;7.45;;;;;;;-0.26;55.21;100591.81;1089347;39;20637;-77
2022/03/09 05:42:58;;;;;;;14.77;8.35;;;;;;;-0.26;55.38;100600.53;1087868;54;20035;-77
2022/03/09 05:44:02;;;;;;;12.73;8.32;;;;;;;-0.28;55.29;100599.72;1087774;54;20030;-77
2022/03/09 05:45:05;;;;;;;13.60;8.15;;;;;;;-0.26;55.39;100597.91;1087718;54;20034;-78
2022/03/09 05:46:11;;;;;;;13.00;7.93;;;;;;;-0.24;55.38;100603.97;1087832;54;20031;-78
2022/03/09 05:47:12;;;;;;;14.68;7.97;;;;;;;-0.21;55.25;100608.22;1087838;54;20034;-77
2022/03/09 05:48:19;;;;;;;16.58;7.90;;;;;;;-0.18;55.20;100614.22;1087846;54;20030;-77
2022/03/09 05:49:21;;;;;;;13.52;8.52;;;;;;;-0.16;55.35;100615.00;1087882;54;20034;-76
2022/03/09 05:50:25;;;;;;;17.67;8.85;;;;;;;-0.16;55.30;100616.78;1087851;54;20043;-78
2022/03/09 05:51:26;;;;;;;14.27;8.32;;;;;;;-0.12;55.42;100617.53;1087782;54;20037;-76
2022/03/09 05:52:31;;;;;;;13.30;7.88;;;;;;;-0.12;55.17;100614.91;1087827;54;20030;-76
2022/03/09 05:53:32;;;;;;;12.68;7.40;;;;;;;-0.10;55.29;100610.44;1087827;54;20038;-76
2022/03/09 05:54:36;;;;;;;12.77;8.38;;;;;;;-0.10;55.10;100616.53;1087758;54;20118;-79
2022/03/09 05:55:38;;;;;;;13.65;7.60;;;;;;;-0.08;55.38;100612.09;1087811;54;20034;-76
2022/03/09 05:56:42;;;;;;;13.57;8.27;;;;;;;-0.10;55.44;100623.59;1089880;39;20592;-79
2022/03/09 05:57:44;;;;;;;21.42;9.60;;;;;;;-0.22;56.29;100624.91;1087597;54;20031;-76
2022/03/09 05:58:48;;;;;;;18.05;9.75;;;;;;;-0.26;56.72;100632.06;1087681;54;20031;-76
2022/03/09 05:59:51;;;;;;;15.05;9.13;;;;;;;-0.27;56.75;100638.22;1087737;54;20039;-79
2022/03/09 06:00:55;;;;;;;15.73;8.88;;;;;;;-0.21;56.43;100638.00;1087820;54;20091;-78
2022/03/09 06:01:56;;;;;;;22.42;9.88;;;;;;;-0.23;56.72;100639.84;1087831;54;20034;-76
2022/03/09 06:03:01;;;;;;;18.13;8.93;;;;;;;-0.23;56.62;100639.84;1087917;54;20038;-76
2022/03/09 06:04:07;;;;;;;16.88;8.65;;;;;;;-0.24;56.72;100643.38;1087770;54;20038;-77
2022/03/09 06:05:09;;;;;;;14.30;8.10;;;;;;;-0.24;56.41;100646.00;1087784;54;20038;-77
2022/03/09 06:06:13;;;;;;;17.20;9.20;;;;;;;-0.24;56.36;100648.63;1087818;54;20031;-77
2022/03/09 06:07:15;;;;;;;16.65;8.70;;;;;;;-0.28;56.59;100638.31;1087828;54;20050;-75